Impacts TAF Board
For situational awareness. Not to be used for flight planning purposes.
IDs:

KMSP - Minneapolis-St Paul, MN, US

Issued at 2056 UTC 19 Jan 2019
Updated at 2228 UTC 19 Jan 2019
Potential Impact None Slight Moderate High
Time2153Z 19/23Z 20/00Z 20/01Z 20/02Z 20/03Z 20/04Z 20/05Z 20/06Z 20/07Z 20/08Z 20/09Z 20/10Z 20/11Z>>
Type OBS PRVL PRVL PRVL PRVL PRVL PRVL PRVL PRVL PRVL PRVL PRVL PRVL PRVL
VIS 10 >6 >6 >6 >6 >6 >6 >6 >6 >6 >6 >6 >6 >6
CIG -- -- -- -- -- -- -- -- -- -- 100 100 100 100
Cover FEW FEW FEW FEW FEW FEW FEW FEW FEW FEW BKN BKN BKN BKN
FltCat VFR VFR VFR VFR VFR VFR VFR VFR VFR VFR VFR VFR VFR VFR
WX -- -- -- -- -- -- -- -- -- -- -- -- -- --
WDir 330 330 330 330 330 330 330 330 330 330 40 40 40 40
WSpd 10 8 8 8 8 8 8 8 8 8 7 7 7 7
WGst 19 -- -- -- -- -- -- -- -- -- -- -- -- --
Raw TAF
KMSP 192056Z 1921/2024 35010KT P6SM SKC
  FM192200 33008KT P6SM FEW100
  FM200800 04007KT P6SM BKN100
  FM201800 09006KT P6SM FEW100


Raw METAR
KMSP 192153Z 33010G19KT 10SM FEW250 M12/M21 A3032 RMK AO2 SLP290 T11221206
KMSP 192053Z 33008G17KT 10SM FEW200 M12/M20 A3033 RMK AO2 SLP290 T11221200 56015
KMSP 191953Z 33008KT 10SM FEW200 M12/M19 A3034 RMK AO2 SLP296 T11221194

METAR Board
Radar Display
Forecast Discussion
For situational awareness. Not to be used for flight planning purposes.